Time;durP1;ratioP1;P1;durP2;ratioP2;P2;SDS_P1;SDS_P2;PMS_P1;PMS_P2;Temp;Humidity;BMP_temperature;BMP_pressure;BME280_temperature;BME280_humidity;BME280_pressure;Samples;Min_cycle;Max_cycle;Signal;HPM_P1;HPM_P2
2023/12/27 00:16:24;;;;;;;63.07;44.50;;;9.40;99.90;;;;;;6065527;23;20011;-74
2023/12/27 00:22:23;;;;;;;67.20;48.67;;;9.40;99.90;;;;;;6065973;23;20017;-74
2023/12/27 00:24:49;;;;;;;70.43;46.00;;;9.40;99.90;;;;;;6126869;23;20376;-74
2023/12/27 00:27:15;;;;;;;72.57;48.10;;;9.40;99.90;;;;;;6196077;22;20543;-74
2023/12/27 00:29:41;;;;;;;75.70;48.87;;;9.40;99.90;;;;;;6276623;22;20035;-74
2023/12/27 00:32:09;;;;;;;75.07;49.83;;;9.40;99.90;;;;;;6276563;22;20007;-74
2023/12/27 00:34:35;;;;;;;69.80;48.87;;;9.40;99.90;;;;;;6276617;22;20012;-74
2023/12/27 00:37:02;;;;;;;74.47;48.63;;;9.40;99.90;;;;;;6276385;22;20004;-74
2023/12/27 00:39:27;;;;;;;69.80;49.03;;;9.40;99.90;;;;;;6276316;22;20090;-74
2023/12/27 00:41:53;;;;;;;72.40;51.37;;;9.40;99.90;;;;;;6276421;22;20027;-74
2023/12/27 00:44:19;;;;;;;77.57;49.20;;;9.40;99.90;;;;;;6276278;22;20007;-74
2023/12/27 00:46:45;;;;;;;70.67;50.07;;;9.40;99.90;;;;;;6276608;22;20003;-74
2023/12/27 00:49:11;;;;;;;74.57;47.83;;;9.40;99.90;;;;;;6276270;22;19995;-74
2023/12/27 00:51:37;;;;;;;69.57;47.57;;;9.30;99.90;;;;;;6275028;22;20004;-74
2023/12/27 00:54:03;;;;;;;71.10;49.20;;;9.30;99.90;;;;;;6276472;22;20006;-74
2023/12/27 00:56:29;;;;;;;71.23;50.17;;;9.30;99.90;;;;;;6249277;22;20004;-74
2023/12/27 00:58:55;;;;;;;71.30;47.90;;;9.30;99.90;;;;;;6249282;22;20098;-74
2023/12/27 01:01:20;;;;;;;73.30;49.07;;;9.30;99.90;;;;;;6276147;22;20007;-74
2023/12/27 01:03:46;;;;;;;71.80;46.50;;;9.30;99.90;;;;;;6276242;22;20000;-74
2023/12/27 01:06:12;;;;;;;67.27;45.63;;;9.30;99.90;;;;;;6248998;22;20007;-72
2023/12/27 01:08:38;;;;;;;70.00;48.93;;;9.30;99.90;;;;;;6275973;22;20102;-74
2023/12/27 01:11:04;;;;;;;64.53;47.33;;;9.30;99.90;;;;;;6276102;22;20050;-74
2023/12/27 01:13:31;;;;;;;67.43;46.63;;;9.30;99.90;;;;;;6275994;22;20003;-74
2023/12/27 01:15:59;;;;;;;68.00;46.83;;;9.30;99.90;;;;;;6249219;22;20046;-74
2023/12/27 01:18:25;;;;;;;71.43;48.37;;;9.30;99.90;;;;;;6276260;22;20490;-74
2023/12/27 01:20:51;;;;;;;68.23;47.87;;;9.30;99.90;;;;;;6276156;22;20067;-74
2023/12/27 01:23:17;;;;;;;74.60;48.60;;;9.30;99.90;;;;;;6275441;22;20486;-74
2023/12/27 01:25:43;;;;;;;63.57;45.30;;;9.20;99.90;;;;;;6276240;22;20084;-74
2023/12/27 01:28:09;;;;;;;67.90;47.10;;;9.30;99.90;;;;;;6276705;22;20426;-74
2023/12/27 01:30:48;;;;;;;69.30;47.53;;;9.30;99.90;;;;;;6249575;22;20054;-74
2023/12/27 01:36:56;;;;;;;69.70;46.87;;;9.30;99.90;;;;;;6197660;23;20494;-74
2023/12/27 01:53:26;;;;;;;65.33;47.20;;;9.20;99.90;;;;;;6182799;23;20016;-74
2023/12/27 01:59:01;;;;;;;74.77;44.83;;;9.20;99.90;;;;;;6089591;23;20070;-74
2023/12/27 02:01:28;;;;;;;72.50;46.70;;;9.20;99.90;;;;;;6256216;22;20730;-74
2023/12/27 02:03:54;;;;;;;63.60;46.67;;;9.20;99.90;;;;;;6272751;22;20042;-74
2023/12/27 02:06:21;;;;;;;69.30;46.07;;;9.20;99.90;;;;;;6247886;22;20003;-74
2023/12/27 02:08:47;;;;;;;64.73;45.40;;;9.20;99.90;;;;;;6248572;22;20397;-74
2023/12/27 02:11:13;;;;;;;66.50;46.43;;;9.20;99.90;;;;;;6276148;22;20379;-74
2023/12/27 02:13:41;;;;;;;60.93;45.07;;;9.20;99.90;;;;;;6275516;22;20007;-74
2023/12/27 02:16:07;;;;;;;62.10;44.37;;;9.20;99.90;;;;;;6275461;22;20381;-74
2023/12/27 02:18:34;;;;;;;61.67;43.67;;;9.30;99.90;;;;;;6274621;22;20007;-74
2023/12/27 02:21:00;;;;;;;65.60;46.40;;;9.20;99.90;;;;;;6275288;22;20398;-74
2023/12/27 02:23:29;;;;;;;62.37;46.03;;;9.20;99.90;;;;;;6275696;22;20007;-74
2023/12/27 02:25:56;;;;;;;69.23;46.87;;;9.20;99.90;;;;;;6275561;22;20004;-74
2023/12/27 02:28:21;;;;;;;71.17;49.07;;;9.20;99.90;;;;;;6274813;22;20445;-74
2023/12/27 02:30:47;;;;;;;64.17;46.37;;;9.20;99.90;;;;;;6275759;22;20004;-74
2023/12/27 02:33:13;;;;;;;61.43;45.00;;;9.20;99.90;;;;;;6275110;22;20012;-74
2023/12/27 02:35:39;;;;;;;62.23;44.60;;;9.30;99.90;;;;;;6275157;22;20000;-74
2023/12/27 02:38:04;;;;;;;64.43;45.23;;;9.20;99.90;;;;;;6277389;22;20004;-71
2023/12/27 02:40:30;;;;;;;65.67;45.67;;;9.20;99.90;;;;;;6277240;22;20024;-74
2023/12/27 02:42:56;;;;;;;61.13;43.17;;;9.20;99.90;;;;;;6276985;22;20004;-74
2023/12/27 02:45:21;;;;;;;57.90;42.20;;;9.30;99.90;;;;;;6277652;22;20003;-74
2023/12/27 02:47:47;;;;;;;67.57;44.50;;;9.30;99.90;;;;;;6250193;22;20015;-74
2023/12/27 02:50:13;;;;;;;59.77;43.33;;;9.20;99.90;;;;;;6276991;22;20000;-74
2023/12/27 02:52:39;;;;;;;62.67;44.80;;;9.30;99.90;;;;;;6277367;22;20027;-74
2023/12/27 02:55:05;;;;;;;64.10;43.63;;;9.30;99.90;;;;;;6277244;22;20003;-74
2023/12/27 02:57:31;;;;;;;68.23;44.77;;;9.30;99.90;;;;;;6277133;22;20000;-74
2023/12/27 02:59:57;;;;;;;65.17;43.27;;;9.20;99.90;;;;;;6277192;22;20046;-74
2023/12/27 03:02:22;;;;;;;62.40;44.13;;;9.20;99.90;;;;;;6277465;22;20007;-74
2023/12/27 03:04:48;;;;;;;60.30;43.10;;;9.20;99.90;;;;;;6277529;22;19995;-74
2023/12/27 03:07:14;;;;;;;73.30;43.67;;;9.20;99.90;;;;;;6250775;22;20045;-74
2023/12/27 03:09:43;;;;;;;67.60;44.90;;;9.20;99.90;;;;;;6277582;22;20023;-74
2023/12/27 03:29:34;;;;;;;66.17;42.80;;;9.20;99.90;;;;;;6124534;23;20100;-74
2023/12/27 03:36:31;;;;;;;61.63;39.87;;;9.20;99.90;;;;;;6064625;23;20442;-74
2023/12/27 03:38:57;;;;;;;55.13;40.30;;;9.20;99.90;;;;;;6075344;23;20014;-74
2023/12/27 03:41:24;;;;;;;57.33;40.90;;;9.20;99.90;;;;;;6153865;23;20400;-74
2023/12/27 03:43:50;;;;;;;59.43;41.23;;;9.20;99.90;;;;;;6243705;22;20034;-74
2023/12/27 03:46:17;;;;;;;65.20;41.13;;;9.10;99.90;;;;;;6276891;22;19996;-74
2023/12/27 03:48:42;;;;;;;60.53;38.57;;;9.10;99.90;;;;;;6276217;22;20090;-74
2023/12/27 03:51:08;;;;;;;54.87;36.23;;;9.20;99.90;;;;;;6276321;22;20034;-74
2023/12/27 03:53:34;;;;;;;54.03;37.50;;;9.10;99.90;;;;;;6276889;22;20023;-74
2023/12/27 03:55:59;;;;;;;57.17;35.17;;;9.10;99.90;;;;;;6276946;22;20000;-74
2023/12/27 03:58:25;;;;;;;53.17;36.13;;;9.20;99.90;;;;;;6249807;22;20010;-74
2023/12/27 04:00:51;;;;;;;55.60;33.97;;;9.20;99.90;;;;;;6249172;22;20006;-73
2023/12/27 04:03:17;;;;;;;51.50;33.30;;;9.20;99.90;;;;;;6275950;22;20061;-73
2023/12/27 04:05:43;;;;;;;60.13;35.10;;;9.20;99.90;;;;;;6276615;22;20070;-74
2023/12/27 04:08:08;;;;;;;52.93;34.07;;;9.20;99.90;;;;;;6276421;22;20015;-74
2023/12/27 04:10:34;;;;;;;46.73;33.17;;;9.20;99.90;;;;;;6277033;22;20027;-74
2023/12/27 04:13:00;;;;;;;45.43;31.17;;;9.20;99.90;;;;;;6277179;22;20012;-74
2023/12/27 04:15:26;;;;;;;55.90;32.40;;;9.30;99.90;;;;;;6276733;22;19996;-74
2023/12/27 04:17:51;;;;;;;48.20;31.60;;;9.20;99.90;;;;;;6275373;22;20007;-75
2023/12/27 04:20:17;;;;;;;47.87;30.07;;;9.30;99.90;;;;;;6276488;22;20007;-72
2023/12/27 04:22:43;;;;;;;51.03;30.57;;;9.30;99.90;;;;;;6276655;22;20007;-71
2023/12/27 04:25:09;;;;;;;52.40;30.67;;;9.30;99.90;;;;;;6276773;22;20011;-72
2023/12/27 04:27:35;;;;;;;51.57;32.63;;;9.30;99.90;;;;;;6276338;22;20014;-74
2023/12/27 04:30:00;;;;;;;51.80;33.43;;;9.30;99.90;;;;;;6276517;22;20000;-74
2023/12/27 04:32:26;;;;;;;49.17;34.50;;;9.30;99.90;;;;;;6276346;22;20008;-74
2023/12/27 04:34:52;;;;;;;51.67;34.93;;;9.30;99.90;;;;;;6276553;22;20069;-74
2023/12/27 04:37:18;;;;;;;57.93;35.17;;;9.30;99.90;;;;;;6276843;22;20453;-74
2023/12/27 04:39:43;;;;;;;57.33;37.50;;;9.20;99.90;;;;;;6277272;22;20011;-74
2023/12/27 04:42:09;;;;;;;53.90;37.80;;;9.30;99.90;;;;;;6277305;22;20007;-74
2023/12/27 04:44:35;;;;;;;56.00;39.00;;;9.20;99.90;;;;;;6277115;22;20422;-74
2023/12/27 04:47:10;;;;;;;57.37;38.73;;;9.20;99.90;;;;;;6276520;22;19999;-74
2023/12/27 04:56:34;;;;;;;57.33;39.20;;;9.20;99.90;;;;;;6227578;22;20433;-74
2023/12/27 04:59:08;;;;;;;58.00;40.03;;;9.20;99.90;;;;;;6249494;22;20008;-74
2023/12/27 05:01:39;;;;;;;56.00;39.00;;;9.20;99.90;;;;;;6248886;22;20098;-74
2023/12/27 05:04:10;;;;;;;56.30;38.00;;;9.20;99.90;;;;;;6276601;22;20321;-74
2023/12/27 05:07:02;;;;;;;55.83;37.70;;;9.20;99.90;;;;;;6276700;22;20030;-74
2023/12/27 05:09:49;;;;;;;59.90;38.80;;;9.20;99.90;;;;;;6266172;22;20007;-74
2023/12/27 05:15:52;;;;;;;59.93;37.87;;;9.10;99.90;;;;;;6189041;22;20028;-74
2023/12/27 05:18:18;;;;;;;55.57;36.87;;;9.10;99.90;;;;;;6276093;22;19996;-71
2023/12/27 05:20:44;;;;;;;56.13;37.03;;;9.10;99.90;;;;;;6275791;22;20011;-71
2023/12/27 05:23:10;;;;;;;50.23;35.33;;;9.10;99.90;;;;;;6276249;22;19999;-74
2023/12/27 05:25:36;;;;;;;54.70;34.60;;;9.10;99.90;;;;;;6276499;22;20000;-74
2023/12/27 05:28:02;;;;;;;48.33;34.23;;;9.10;99.90;;;;;;6276107;22;20012;-73
2023/12/27 05:30:28;;;;;;;56.23;34.57;;;9.10;99.90;;;;;;6274602;22;20011;-72
2023/12/27 05:32:54;;;;;;;46.27;32.53;;;9.10;99.90;;;;;;6276116;22;20014;-71
2023/12/27 05:35:20;;;;;;;49.27;30.40;;;9.10;99.90;;;;;;6275608;22;20039;-71
2023/12/27 05:37:46;;;;;;;49.13;30.50;;;9.10;99.90;;;;;;6275714;22;20007;-74
2023/12/27 05:40:11;;;;;;;51.37;29.57;;;9.10;99.90;;;;;;6274071;22;19999;-74
2023/12/27 05:42:37;;;;;;;42.73;28.37;;;9.20;99.90;;;;;;6275378;22;20010;-74
2023/12/27 05:45:03;;;;;;;51.70;30.00;;;9.20;99.90;;;;;;6248168;22;20006;-74
2023/12/27 05:47:29;;;;;;;48.57;32.00;;;9.10;99.90;;;;;;6275936;22;20023;-71
2023/12/27 05:49:55;;;;;;;51.90;33.17;;;9.20;99.90;;;;;;6275454;22;20000;-71
2023/12/27 05:52:21;;;;;;;51.93;33.20;;;9.20;99.90;;;;;;6275574;22;19999;-73
2023/12/27 05:54:47;;;;;;;42.57;29.90;;;9.10;99.90;;;;;;6275516;22;20381;-74
2023/12/27 05:57:12;;;;;;;50.40;32.47;;;9.10;99.90;;;;;;6275325;22;20004;-74
2023/12/27 05:59:38;;;;;;;46.67;30.57;;;9.10;99.90;;;;;;6275658;22;19995;-74
2023/12/27 06:02:04;;;;;;;46.63;30.13;;;9.10;99.90;;;;;;6275576;22;20028;-74
2023/12/27 06:04:30;;;;;;;45.77;31.77;;;9.10;99.90;;;;;;6248357;22;20000;-74
2023/12/27 06:06:56;;;;;;;42.93;31.07;;;9.10;99.90;;;;;;6274950;22;20004;-71
2023/12/27 06:09:22;;;;;;;49.03;32.20;;;9.00;99.90;;;;;;6275533;22;20030;-72
2023/12/27 06:11:48;;;;;;;46.43;32.47;;;9.00;99.90;;;;;;6275107;22;20444;-72
2023/12/27 06:14:14;;;;;;;42.90;31.03;;;9.00;99.90;;;;;;6275764;22;20031;-72
2023/12/27 06:16:40;;;;;;;48.10;30.80;;;9.00;99.90;;;;;;6275656;22;20004;-72
2023/12/27 06:19:05;;;;;;;40.97;30.80;;;9.00;99.90;;;;;;6276138;22;20004;-72
2023/12/27 06:21:32;;;;;;;45.60;32.17;;;9.00;99.90;;;;;;6276181;22;20071;-72
2023/12/27 06:23:57;;;;;;;41.67;31.70;;;9.00;99.90;;;;;;6276860;22;20004;-73
2023/12/27 06:26:23;;;;;;;41.43;30.77;;;9.00;99.90;;;;;;6276369;22;20006;-72
2023/12/27 06:28:50;;;;;;;50.00;33.03;;;9.00;99.90;;;;;;6276332;22;20092;-72
2023/12/27 06:35:41;;;;;;;48.70;32.40;;;8.90;99.90;;;;;;6161637;23;20033;-72
2023/12/27 06:38:14;;;;;;;52.10;31.90;;;8.90;99.90;;;;;;6182663;23;20387;-72
2023/12/27 06:40:40;;;;;;;44.95;31.00;;;8.90;99.90;;;;;;6182638;23;20006;-72
2023/12/27 06:50:00;;;;;;;50.63;32.07;;;9.00;99.90;;;;;;6036871;23;20051;-72
2023/12/27 06:53:20;;;;;;;48.10;31.83;;;9.00;99.90;;;;;;6119623;23;20013;-73
2023/12/27 06:55:46;;;;;;;47.67;31.87;;;8.90;99.90;;;;;;6134694;23;20327;-72
2023/12/27 06:58:12;;;;;;;51.53;34.17;;;9.00;99.90;;;;;;6212446;23;20305;-72
2023/12/27 07:00:38;;;;;;;57.93;33.87;;;8.90;99.90;;;;;;6232828;22;20014;-72
2023/12/27 07:03:05;;;;;;;50.03;33.97;;;8.90;99.90;;;;;;6275674;22;20067;-71
2023/12/27 07:05:31;;;;;;;49.47;33.10;;;8.90;99.90;;;;;;6275562;22;19996;-72
2023/12/27 07:07:56;;;;;;;52.60;33.60;;;8.90;99.90;;;;;;6275868;22;20016;-72
2023/12/27 07:10:22;;;;;;;46.10;32.20;;;9.00;99.90;;;;;;6275359;22;20004;-72
2023/12/27 07:12:48;;;;;;;52.37;36.83;;;9.00;99.90;;;;;;6275256;22;20011;-72
2023/12/27 07:15:14;;;;;;;57.30;36.97;;;9.10;99.90;;;;;;6275764;22;20006;-72
2023/12/27 07:17:39;;;;;;;54.37;37.23;;;9.10;99.90;;;;;;6275584;22;20023;-73
2023/12/27 07:20:05;;;;;;;59.37;38.17;;;9.20;99.90;;;;;;6275515;22;20006;-72
2023/12/27 07:22:32;;;;;;;59.43;38.27;;;9.30;99.90;;;;;;6275657;22;20073;-72
2023/12/27 07:24:58;;;;;;;55.73;38.20;;;9.30;99.90;;;;;;6277426;22;20004;-73
2023/12/27 07:27:24;;;;;;;55.73;36.53;;;9.30;99.90;;;;;;6276717;22;20035;-72
2023/12/27 07:29:49;;;;;;;55.53;36.27;;;9.30;99.90;;;;;;6276885;22;20410;-73
2023/12/27 07:32:15;;;;;;;53.70;34.10;;;9.30;99.90;;;;;;6277081;22;20014;-72
2023/12/27 07:34:42;;;;;;;53.80;33.80;;;9.30;99.90;;;;;;6277406;22;20003;-71
2023/12/27 07:37:08;;;;;;;53.00;35.07;;;9.30;99.90;;;;;;6276868;22;20011;-71
2023/12/27 07:39:34;;;;;;;54.43;35.57;;;9.30;99.90;;;;;;6277740;22;20311;-71
2023/12/27 07:42:00;;;;;;;57.50;35.80;;;9.30;99.90;;;;;;6277346;22;19999;-69
2023/12/27 07:44:26;;;;;;;52.67;35.97;;;9.30;99.90;;;;;;6274879;22;20030;-70
2023/12/27 07:46:53;;;;;;;50.50;33.17;;;9.40;99.90;;;;;;6275864;22;20007;-71
2023/12/27 07:49:19;;;;;;;49.77;32.33;;;9.40;99.90;;;;;;6276639;22;20012;-77
2023/12/27 07:51:45;;;;;;;52.22;33.20;;;9.40;99.90;;;;;;6276907;22;20042;-69
2023/12/27 07:54:11;;;;;;;42.87;29.83;;;9.40;99.90;;;;;;6275457;22;20011;-71
2023/12/27 07:56:37;;;;;;;51.13;31.60;;;9.40;99.90;;;;;;6276564;22;20027;-70
2023/12/27 07:59:04;;;;;;;51.00;31.30;;;9.40;99.90;;;;;;6277478;22;20064;-75
2023/12/27 08:01:31;;;;;;;49.00;31.83;;;9.40;99.90;;;;;;6277342;22;20317;-74
2023/12/27 08:04:01;;;;;;;51.80;31.90;;;9.40;99.90;;;;;;6277391;22;20028;-74
2023/12/27 08:06:33;;;;;;;48.13;31.23;;;9.40;99.90;;;;;;6277388;22;20045;-71
2023/12/27 08:09:11;;;;;;;52.15;31.85;;;9.40;99.90;;;;;;6276715;22;20015;-71
2023/12/27 08:11:56;;;;;;;49.55;32.70;;;9.40;99.90;;;;;;6276962;22;19999;-72
2023/12/27 08:14:26;;;;;;;49.63;33.30;;;9.50;99.90;;;;;;6276369;22;20074;-72
2023/12/27 08:17:03;;;;;;;53.57;33.30;;;9.50;99.90;;;;;;6276948;22;20027;-72
2023/12/27 08:20:17;;;;;;;51.50;32.13;;;9.50;99.90;;;;;;6147708;22;20038;-72
2023/12/27 08:22:52;;;;;;;50.63;31.20;;;9.50;99.90;;;;;;6098498;23;20157;-71
2023/12/27 08:26:28;;;;;;;49.13;30.88;;;9.50;99.90;;;;;;6250676;22;20330;-72
2023/12/27 08:32:04;;;;;;;52.23;33.53;;;9.50;99.90;;;;;;6274314;22;20019;-71
2023/12/27 08:34:30;;;;;;;50.27;36.43;;;9.60;99.90;;;;;;6275611;22;20023;-71
2023/12/27 08:36:56;;;;;;;57.85;34.05;;;9.60;99.90;;;;;;6248863;22;20077;-71
2023/12/27 08:39:22;;;;;;;50.80;33.37;;;9.60;99.90;;;;;;6276666;22;20003;-71
2023/12/27 08:41:48;;;;;;;44.33;32.57;;;9.60;99.90;;;;;;6276792;22;20000;-72
2023/12/27 08:44:14;;;;;;;46.33;31.60;;;9.60;99.90;;;;;;6276037;22;20000;-72
2023/12/27 08:46:40;;;;;;;47.47;31.20;;;9.60;99.90;;;;;;6276120;22;20058;-72
2023/12/27 08:49:06;;;;;;;57.20;34.33;;;9.70;99.90;;;;;;6276231;22;20050;-71
2023/12/27 08:51:31;;;;;;;51.87;34.03;;;9.70;99.90;;;;;;6275156;22;19992;-72
2023/12/27 08:53:58;;;;;;;54.27;34.60;;;9.70;99.90;;;;;;6276081;22;20004;-72
2023/12/27 08:56:24;;;;;;;53.03;32.80;;;9.70;99.90;;;;;;6274558;22;20023;-71
2023/12/27 08:58:50;;;;;;;51.50;32.77;;;9.70;99.90;;;;;;6274667;22;20426;-71
2023/12/27 09:01:17;;;;;;;48.47;32.83;;;9.80;99.90;;;;;;6275916;22;20003;-70
2023/12/27 09:03:43;;;;;;;48.33;33.80;;;9.80;99.90;;;;;;6276368;22;20003;-70
2023/12/27 09:06:09;;;;;;;47.17;30.98;;;9.80;99.90;;;;;;6276063;22;20370;-75
2023/12/27 09:08:38;;;;;;;50.55;30.80;;;9.80;99.90;;;;;;6275929;22;20019;-74
2023/12/27 09:11:04;;;;;;;57.92;34.95;;;9.80;99.90;;;;;;6276075;22;20008;-73
2023/12/27 09:13:30;;;;;;;47.53;33.87;;;9.80;99.90;;;;;;6275387;22;20422;-70
2023/12/27 09:15:56;;;;;;;50.85;35.08;;;9.90;99.90;;;;;;6276254;22;20056;-73
2023/12/27 09:18:22;;;;;;;56.80;34.45;;;9.90;99.90;;;;;;6249222;22;20014;-73
2023/12/27 09:20:47;;;;;;;56.33;38.03;;;9.90;99.90;;;;;;6275812;22;20002;-70
2023/12/27 09:23:13;;;;;;;52.33;38.03;;;9.90;99.90;;;;;;6275654;22;20008;-73
2023/12/27 09:25:40;;;;;;;52.83;34.92;;;9.90;99.90;;;;;;6275906;22;19995;-73
2023/12/27 09:28:05;;;;;;;60.13;36.55;;;9.90;99.90;;;;;;6256155;22;20020;-71
2023/12/27 09:30:31;;;;;;;49.70;33.22;;;9.90;99.90;;;;;;6215621;23;20008;-71
2023/12/27 09:32:57;;;;;;;51.83;33.17;;;9.90;99.90;;;;;;6216434;23;20005;-71
2023/12/27 09:35:23;;;;;;;53.28;34.65;;;9.90;99.90;;;;;;6215615;23;19996;-70
2023/12/27 09:37:49;;;;;;;53.50;34.30;;;10.00;99.90;;;;;;6215933;23;20365;-71
2023/12/27 09:40:31;;;;;;;;;;;;;;;;;;;;;
2023/12/27 10:00:12;;;;;;;61.08;38.53;;;10.00;99.90;;;;;;6093096;23;20017;-72
2023/12/27 10:06:42;;;;;;;68.63;38.87;;;10.10;99.90;;;;;;6035632;23;20011;-73
2023/12/27 10:09:10;;;;;;;64.20;38.42;;;10.10;99.90;;;;;;6035987;23;20110;-73
2023/12/27 10:11:39;;;;;;;63.13;39.08;;;10.10;99.90;;;;;;6213210;23;20004;-73
2023/12/27 10:14:07;;;;;;;58.45;37.00;;;10.10;99.90;;;;;;6214896;23;20005;-73
2023/12/27 10:16:33;;;;;;;51.75;34.72;;;10.10;99.90;;;;;;6214678;23;20031;-74
2023/12/27 10:19:01;;;;;;;57.67;35.97;;;10.10;99.90;;;;;;6214965;23;20000;-73
2023/12/27 10:21:39;;;;;;;53.47;33.50;;;10.10;99.90;;;;;;6214354;23;20027;-73
2023/12/27 10:24:05;;;;;;;49.97;33.25;;;10.10;99.90;;;;;;6187286;23;20012;-74
2023/12/27 10:26:31;;;;;;;48.80;31.58;;;10.10;99.90;;;;;;6214503;23;20035;-76
2023/12/27 10:28:59;;;;;;;51.67;32.45;;;10.10;99.90;;;;;;6214545;23;20020;-73
2023/12/27 10:31:25;;;;;;;47.08;29.67;;;10.20;99.90;;;;;;6213682;23;20363;-74
2023/12/27 10:33:51;;;;;;;49.83;31.10;;;10.20;99.90;;;;;;6212154;23;20446;-73
2023/12/27 10:36:17;;;;;;;47.40;31.65;;;10.20;99.90;;;;;;6215073;23;20001;-73
2023/12/27 10:38:45;;;;;;;46.03;32.05;;;10.20;99.90;;;;;;6214193;23;20004;-74
2023/12/27 10:41:11;;;;;;;50.03;31.38;;;10.20;99.90;;;;;;6214057;23;19997;-72
2023/12/27 10:43:36;;;;;;;47.17;31.52;;;10.20;99.90;;;;;;6213671;23;20001;-74
2023/12/27 10:46:09;;;;;;;47.50;30.88;;;10.20;99.90;;;;;;6213740;23;20005;-74
2023/12/27 10:48:38;;;;;;;;;;;10.20;99.90;;;;;;6214103;23;20055;-73
2023/12/27 10:51:06;;;;;;;43.45;31.90;;;10.20;99.90;;;;;;6214426;23;19900;-73
2023/12/27 10:53:34;;;;;;;46.88;33.15;;;10.20;99.90;;;;;;6214430;23;20438;-72
2023/12/27 10:56:04;;;;;;;67.72;40.15;;;10.20;99.90;;;;;;6188230;23;20036;-73
2023/12/27 10:58:33;;;;;;;60.38;45.35;;;10.20;99.90;;;;;;6216037;23;20079;-73
2023/12/27 11:01:00;;;;;;;62.15;44.60;;;10.20;99.90;;;;;;6216719;23;20423;-73
2023/12/27 11:03:29;;;;;;;66.60;44.10;;;10.20;99.90;;;;;;6216300;23;20147;-73
2023/12/27 11:05:59;;;;;;;65.68;42.53;;;10.30;99.90;;;;;;6217097;23;20004;-73
2023/12/27 11:08:27;;;;;;;60.00;38.10;;;10.20;99.90;;;;;;6217063;23;20036;-73
2023/12/27 11:10:54;;;;;;;48.13;33.80;;;10.20;99.90;;;;;;6214482;23;20080;-73
2023/12/27 11:13:52;;;;;;;49.13;30.95;;;10.20;99.90;;;;;;6216129;23;20051;-73
2023/12/27 11:17:10;;;;;;;46.50;28.73;;;10.20;99.90;;;;;;6216054;23;19996;-73
2023/12/27 11:19:47;;;;;;;44.88;28.50;;;10.20;99.90;;;;;;6152803;23;20005;-73
2023/12/27 11:22:41;;;;;;;41.92;26.95;;;10.20;99.90;;;;;;6153916;23;20002;-73
2023/12/27 11:25:22;;;;;;;45.70;28.38;;;10.20;99.90;;;;;;6153732;23;20436;-74
2023/12/27 11:27:49;;;;;;;48.53;28.85;;;10.20;99.90;;;;;;6150130;23;20076;-73
2023/12/27 11:30:39;;;;;;;45.38;28.58;;;10.30;99.90;;;;;;6153141;23;20108;-72
2023/12/27 11:33:55;;;;;;;44.42;28.63;;;10.20;99.90;;;;;;6110638;23;20179;-73
2023/12/27 11:36:59;;;;;;;40.88;29.15;;;10.20;99.90;;;;;;6123601;23;20080;-72
2023/12/27 11:39:29;;;;;;;43.42;28.30;;;10.20;99.90;;;;;;6147127;23;20041;-72
2023/12/27 11:41:57;;;;;;;42.53;28.02;;;10.20;99.90;;;;;;6153519;23;20010;-72
2023/12/27 11:44:23;;;;;;;50.00;30.38;;;10.20;99.90;;;;;;6179697;23;20001;-72
2023/12/27 11:46:49;;;;;;;44.22;27.45;;;10.20;99.90;;;;;;6184929;23;20005;-73
2023/12/27 11:49:19;;;;;;;44.45;26.77;;;10.20;99.90;;;;;;6186259;23;20044;-72
2023/12/27 11:51:45;;;;;;;38.65;24.40;;;10.30;99.90;;;;;;6185715;23;19997;-73
2023/12/27 11:54:21;;;;;;;33.75;22.05;;;10.30;99.90;;;;;;6186027;23;20005;-71
2023/12/27 11:56:47;;;;;;;35.30;22.60;;;10.20;99.90;;;;;;6185205;23;20312;-72
2023/12/27 11:59:14;;;;;;;35.67;23.00;;;10.30;99.90;;;;;;6185818;23;20060;-73
2023/12/27 12:01:41;;;;;;;38.43;22.77;;;10.30;99.90;;;;;;6185766;23;20543;-73
2023/12/27 12:04:37;;;;;;;34.80;23.13;;;10.30;99.90;;;;;;6185441;23;20027;-72
2023/12/27 12:07:24;;;;;;;38.60;23.30;;;10.30;99.90;;;;;;6185897;23;20032;-74
2023/12/27 12:09:50;;;;;;;40.55;23.38;;;10.30;99.90;;;;;;6185483;23;20013;-73
2023/12/27 12:12:20;;;;;;;39.25;23.10;;;10.30;99.90;;;;;;6185348;23;20009;-74
2023/12/27 12:14:49;;;;;;;34.88;23.73;;;10.30;99.90;;;;;;6185832;23;20037;-73
2023/12/27 12:17:15;;;;;;;43.15;25.65;;;10.30;99.90;;;;;;6185802;23;20001;-73
2023/12/27 12:19:41;;;;;;;41.92;24.75;;;10.30;99.90;;;;;;6185388;23;20013;-73
2023/12/27 12:22:07;;;;;;;36.88;23.60;;;10.30;99.90;;;;;;6185920;23;20092;-73
2023/12/27 12:24:33;;;;;;;35.83;23.40;;;10.30;99.90;;;;;;6185909;23;20052;-73
2023/12/27 12:27:02;;;;;;;38.00;24.13;;;10.30;99.90;;;;;;6186121;23;20009;-73
2023/12/27 12:29:28;;;;;;;33.35;23.42;;;10.30;99.90;;;;;;6185842;23;20028;-73
2023/12/27 12:31:55;;;;;;;45.25;23.52;;;10.30;99.90;;;;;;6186084;23;20036;-73
2023/12/27 12:34:21;;;;;;;37.53;24.50;;;10.40;99.90;;;;;;6184875;23;20012;-70
2023/12/27 12:36:48;;;;;;;35.28;23.60;;;10.40;99.90;;;;;;6185364;23;20386;-72
2023/12/27 12:39:16;;;;;;;38.90;23.45;;;10.40;99.90;;;;;;6185781;23;20363;-70
2023/12/27 12:41:43;;;;;;;34.22;24.83;;;10.40;99.90;;;;;;6185385;23;20060;-70
2023/12/27 12:44:12;;;;;;;38.53;26.02;;;10.40;99.90;;;;;;6184925;23;20001;-70
2023/12/27 13:07:03;;;;;;;36.75;22.95;;;10.40;99.90;;;;;;6120652;23;20028;-77
2023/12/27 13:10:06;;;;;;;40.70;23.55;;;10.40;99.90;;;;;;6093995;23;20097;-76
2023/12/27 13:12:33;;;;;;;30.48;21.67;;;10.50;99.90;;;;;;6094285;23;20006;-74
2023/12/27 13:14:59;;;;;;;32.20;21.00;;;10.40;99.90;;;;;;6094002;23;20007;-74
2023/12/27 13:17:25;;;;;;;33.47;20.83;;;10.40;99.90;;;;;;6148049;23;20008;-77
2023/12/27 13:19:51;;;;;;;34.70;22.88;;;10.50;99.90;;;;;;6185231;23;20001;-75
2023/12/27 13:22:17;;;;;;;29.83;21.80;;;10.40;99.90;;;;;;6185320;23;20033;-71
2023/12/27 13:24:43;;;;;;;34.70;21.75;;;10.40;99.90;;;;;;6183853;23;20000;-74
2023/12/27 13:27:09;;;;;;;34.10;21.88;;;10.40;99.90;;;;;;6154433;23;20386;-75
2023/12/27 13:29:35;;;;;;;34.15;22.08;;;10.40;99.90;;;;;;6180973;23;20024;-74
2023/12/27 13:32:01;;;;;;;38.30;22.38;;;10.50;99.90;;;;;;6182913;23;19997;-73
2023/12/27 13:34:28;;;;;;;36.78;22.10;;;10.50;99.90;;;;;;6184738;23;20300;-74
2023/12/27 13:36:54;;;;;;;36.17;22.13;;;10.50;99.90;;;;;;6184862;23;20425;-73
2023/12/27 13:39:20;;;;;;;29.63;21.10;;;10.50;99.90;;;;;;6184911;23;20032;-72
2023/12/27 13:41:45;;;;;;;37.10;22.50;;;10.50;99.90;;;;;;6184208;23;19997;-73
2023/12/27 13:44:11;;;;;;;34.45;22.13;;;10.50;99.90;;;;;;6184571;23;20001;-72
2023/12/27 13:46:37;;;;;;;40.10;24.38;;;10.50;99.90;;;;;;6184898;23;20005;-72
2023/12/27 13:49:03;;;;;;;33.58;22.13;;;10.50;99.90;;;;;;6184376;23;20048;-74
2023/12/27 13:51:29;;;;;;;31.98;23.02;;;10.50;99.90;;;;;;6184567;23;19997;-75
2023/12/27 13:53:54;;;;;;;31.45;22.60;;;10.50;99.90;;;;;;6184260;23;20009;-73
2023/12/27 13:56:20;;;;;;;35.65;23.15;;;10.50;99.90;;;;;;6184406;23;20004;-73
2023/12/27 13:58:46;;;;;;;37.97;25.08;;;10.50;99.90;;;;;;6184642;23;20008;-74
2023/12/27 14:01:13;;;;;;;39.00;25.58;;;10.50;99.90;;;;;;6184987;23;20420;-73
2023/12/27 14:03:38;;;;;;;42.00;28.00;;;10.50;99.90;;;;;;6184803;23;20427;-77
2023/12/27 14:06:06;;;;;;;43.05;27.73;;;10.50;99.90;;;;;;6184364;23;20053;-73
2023/12/27 14:08:32;;;;;;;41.92;26.65;;;10.50;99.90;;;;;;6183999;23;20009;-73
2023/12/27 14:10:57;;;;;;;39.28;27.50;;;10.50;99.90;;;;;;6185054;23;20011;-73
2023/12/27 14:13:24;;;;;;;40.33;25.05;;;10.50;99.90;;;;;;6182302;23;20005;-72
2023/12/27 14:15:50;;;;;;;44.28;26.42;;;10.50;99.90;;;;;;6182103;23;20331;-72
2023/12/27 14:18:17;;;;;;;38.33;25.73;;;10.50;99.90;;;;;;6183184;23;19997;-72
2023/12/27 14:39:09;;;;;;;43.03;27.15;;;10.50;99.90;;;;;;6003077;23;20030;-72
2023/12/27 14:42:30;;;;;;;44.15;27.48;;;10.50;99.90;;;;;;6010100;23;20022;-73
2023/12/27 14:44:56;;;;;;;41.83;26.38;;;10.50;99.90;;;;;;5925645;24;20012;-73
2023/12/27 14:47:22;;;;;;;38.28;25.95;;;10.40;99.90;;;;;;6017573;23;20007;-74
2023/12/27 14:49:48;;;;;;;36.50;24.85;;;10.40;99.90;;;;;;6113459;23;20080;-75
2023/12/27 14:52:14;;;;;;;37.97;25.67;;;10.40;99.90;;;;;;6186921;23;20400;-75
2023/12/27 14:54:40;;;;;;;36.78;25.63;;;10.50;99.90;;;;;;6186841;23;20056;-74
2023/12/27 14:57:06;;;;;;;40.00;26.90;;;10.50;99.90;;;;;;6186340;23;20071;-75
2023/12/27 14:59:34;;;;;;;177.43;137.32;;;10.50;99.90;;;;;;6186416;23;20009;-76
2023/12/27 15:02:00;;;;;;;62.25;43.50;;;10.50;99.90;;;;;;6186873;23;20308;-75
2023/12/27 15:04:26;;;;;;;48.70;32.22;;;10.40;99.90;;;;;;6186953;23;20059;-73
2023/12/27 15:06:56;;;;;;;47.25;30.33;;;10.50;99.90;;;;;;6160404;23;20323;-74
2023/12/27 15:09:23;;;;;;;48.00;29.98;;;10.50;99.90;;;;;;6186748;23;20435;-73